Portada
METAR-TAF:

METAR-TAF

Aeroports :

Al-Arix, Egipte

latitud: 31-05N, longitud: 033-49E, altitud: 31 m

METAR: manca

Hora: 05:30 (03:30 UTC)

Pronòstic

L'informe es va fer fa 4 hores i 30 minuts, a les 23:00 UTC
Pronòstic vàlid del 29 a les 00 UTC al 30 a les 06 UTC
Vent 8 kt del Sud-Oest
Visibilitat 10 km o més
Núvols disperses a una alçada de 2000 ft
Temporalment
l' 29 a les 00 UTC al 29 a les 06 UTC
Vent 3 kt amb direcció variable
Visibilitat: 3000 m
boirina

TAF: HEAR 282300Z 2900/3006 22008KT 9999 SCT020 TEMPO 2900/2906 VRB03KT 3000 BR

Observacions i pronòstics meteorològics de més de 4000 aeroports (METAR i TAF).

Les estacions disponibles són els punts grocs i vermells al mapa.

Posi el ratolí al punt desitjat per veure el nom de l'estació.

Feu clic per veure les observacions i els pronòstics meteorològics.

Per canviar el mapa: feu clic els botons verds amb una creu de color negre per apropar; al botó verd amb un guió per allunyar la imatge; o en les fletxes verdes per a mapes adjacents.


METAR-TAF: